sensor_id;sensor_type;location;lat;lon;timestamp;pressure;altitude;pressure_sealevel;temperature
67966;BMP280;54749;47.850;9.002;2022-09-29T00:00:15;94583.44;;;8.96
67966;BMP280;54749;47.850;9.002;2022-09-29T00:03:03;94594.84;;;9.00
67966;BMP280;54749;47.850;9.002;2022-09-29T00:05:30;94590.72;;;8.99
67966;BMP280;54749;47.850;9.002;2022-09-29T00:07:57;94587.28;;;9.00
67966;BMP280;54749;47.850;9.002;2022-09-29T00:10:24;94586.47;;;8.99
67966;BMP280;54749;47.850;9.002;2022-09-29T00:12:51;94578.25;;;8.97
67966;BMP280;54749;47.850;9.002;2022-09-29T00:15:18;94580.66;;;8.99
67966;BMP280;54749;47.850;9.002;2022-09-29T00:17:44;94576.41;;;8.99
67966;BMP280;54749;47.850;9.002;2022-09-29T00:20:31;94578.25;;;8.97
67966;BMP280;54749;47.850;9.002;2022-09-29T00:22:58;94581.56;;;8.98
67966;BMP280;54749;47.850;9.002;2022-09-29T00:25:26;94566.16;;;9.01
67966;BMP280;54749;47.850;9.002;2022-09-29T00:27:53;94566.16;;;9.01
67966;BMP280;54749;47.850;9.002;2022-09-29T00:30:19;94560.38;;;9.00
67966;BMP280;54749;47.850;9.002;2022-09-29T00:32:46;94557.84;;;9.00
67966;BMP280;54749;47.850;9.002;2022-09-29T00:35:13;94564.31;;;9.03
67966;BMP280;54749;47.850;9.002;2022-09-29T00:37:42;94565.91;;;9.04
67966;BMP280;54749;47.850;9.002;2022-09-29T00:40:09;94570.16;;;9.03
67966;BMP280;54749;47.850;9.002;2022-09-29T00:42:36;94567.50;;;9.05
67966;BMP280;54749;47.850;9.002;2022-09-29T00:47:35;94573.59;;;9.02
67966;BMP280;54749;47.850;9.002;2022-09-29T00:50:45;94563.66;;;9.01
67966;BMP280;54749;47.850;9.002;2022-09-29T00:53:15;94581.16;;;9.02
67966;BMP280;54749;47.850;9.002;2022-09-29T00:56:03;94587.91;;;9.02
67966;BMP280;54749;47.850;9.002;2022-09-29T00:58:36;94571.22;;;9.01
67966;BMP280;54749;47.850;9.002;2022-09-29T01:01:05;94571.22;;;9.01
67966;BMP280;54749;47.850;9.002;2022-09-29T01:03:37;94567.13;;;9.00
67966;BMP280;54749;47.850;9.002;2022-09-29T01:08:42;94574.41;;;9.03
67966;BMP280;54749;47.850;9.002;2022-09-29T01:11:11;94569.34;;;9.03
67966;BMP280;54749;47.850;9.002;2022-09-29T01:13:39;94564.31;;;9.03
67966;BMP280;54749;47.850;9.002;2022-09-29T01:16:07;94570.03;;;9.05
67966;BMP280;54749;47.850;9.002;2022-09-29T01:18:35;94568.44;;;9.04
67966;BMP280;54749;47.850;9.002;2022-09-29T01:30:07;94555.78;;;8.87
67966;BMP280;54749;47.850;9.002;2022-09-29T01:35:25;94536.69;;;8.84
67966;BMP280;54749;47.850;9.002;2022-09-29T01:40:37;94527.81;;;8.80
67966;BMP280;54749;47.850;9.002;2022-09-29T01:43:16;94532.06;;;8.80
67966;BMP280;54749;47.850;9.002;2022-09-29T01:45:49;94537.50;;;8.75
67966;BMP280;54749;47.850;9.002;2022-09-29T01:48:26;94531.84;;;8.74
67966;BMP280;54749;47.850;9.002;2022-09-29T01:50:58;94531.84;;;8.74
67966;BMP280;54749;47.850;9.002;2022-09-29T01:53:41;94524.28;;;8.74
67966;BMP280;54749;47.850;9.002;2022-09-29T01:59:00;94545.34;;;8.73
67966;BMP280;54749;47.850;9.002;2022-09-29T02:01:33;94541.91;;;8.74
67966;BMP280;54749;47.850;9.002;2022-09-29T02:04:08;94550.91;;;8.76
67966;BMP280;54749;47.850;9.002;2022-09-29T02:06:45;94545.06;;;8.75
67966;BMP280;54749;47.850;9.002;2022-09-29T02:09:20;94542.53;;;8.75
67966;BMP280;54749;47.850;9.002;2022-09-29T02:11:49;94542.72;;;8.74
67966;BMP280;54749;47.850;9.002;2022-09-29T02:14:25;94543.13;;;8.70
67966;BMP280;54749;47.850;9.002;2022-09-29T02:17:06;94529.84;;;8.68
67966;BMP280;54749;47.850;9.002;2022-09-29T02:19:37;94526.97;;;8.63
67966;BMP280;54749;47.850;9.002;2022-09-29T02:22:05;94523.13;;;8.59
67966;BMP280;54749;47.850;9.002;2022-09-29T02:24:32;94525.94;;;8.56
67966;BMP280;54749;47.850;9.002;2022-09-29T02:26:59;94526.97;;;8.54
67966;BMP280;54749;47.850;9.002;2022-09-29T02:29:26;94519.22;;;8.47
67966;BMP280;54749;47.850;9.002;2022-09-29T02:31:54;94527.00;;;8.44
67966;BMP280;54749;47.850;9.002;2022-09-29T02:34:21;94529.53;;;8.44
67966;BMP280;54749;47.850;9.002;2022-09-29T02:42:13;94534.84;;;8.41
67966;BMP280;54749;47.850;9.002;2022-09-29T02:47:44;94531.81;;;8.38
67966;BMP280;54749;47.850;9.002;2022-09-29T02:50:35;94541.47;;;8.42
67966;BMP280;54749;47.850;9.002;2022-09-29T02:53:18;94521.72;;;8.47
67966;BMP280;54749;47.850;9.002;2022-09-29T02:56:14;94516.41;;;8.50
67966;BMP280;54749;47.850;9.002;2022-09-29T02:59:02;94520.53;;;8.51
67966;BMP280;54749;47.850;9.002;2022-09-29T03:01:31;94521.56;;;8.49
67966;BMP280;54749;47.850;9.002;2022-09-29T03:03:58;94506.75;;;8.46
67966;BMP280;54749;47.850;9.002;2022-09-29T03:06:30;94499.31;;;8.44
67966;BMP280;54749;47.850;9.002;2022-09-29T03:08:57;94506.25;;;8.42
67966;BMP280;54749;47.850;9.002;2022-09-29T03:11:24;94492.97;;;8.40
67966;BMP280;54749;47.850;9.002;2022-09-29T03:13:51;94498.03;;;8.40
67966;BMP280;54749;47.850;9.002;2022-09-29T03:16:18;94504.50;;;8.43
67966;BMP280;54749;47.850;9.002;2022-09-29T03:18:44;94511.00;;;8.45
67966;BMP280;54749;47.850;9.002;2022-09-29T03:21:12;94520.53;;;8.51
67966;BMP280;54749;47.850;9.002;2022-09-29T03:23:39;94516.00;;;8.55
67966;BMP280;54749;47.850;9.002;2022-09-29T03:26:05;94525.78;;;8.57
67966;BMP280;54749;47.850;9.002;2022-09-29T03:28:32;94514.66;;;8.60
67966;BMP280;54749;47.850;9.002;2022-09-29T03:31:06;94511.72;;;8.64
67966;BMP280;54749;47.850;9.002;2022-09-29T03:33:36;94504.97;;;8.65
67966;BMP280;54749;47.850;9.002;2022-09-29T03:36:07;94503.38;;;8.64
67966;BMP280;54749;47.850;9.002;2022-09-29T03:38:40;94501.16;;;8.61
67966;BMP280;54749;47.850;9.002;2022-09-29T03:41:06;94501.69;;;8.55
67966;BMP280;54749;47.850;9.002;2022-09-29T03:43:33;94503.81;;;8.50
67966;BMP280;54749;47.850;9.002;2022-09-29T03:46:00;94508.47;;;8.45
67966;BMP280;54749;47.850;9.002;2022-09-29T03:48:29;94503.59;;;8.44
67966;BMP280;54749;47.850;9.002;2022-09-29T03:50:56;94506.75;;;8.46
67966;BMP280;54749;47.850;9.002;2022-09-29T03:53:23;94502.50;;;8.46
67966;BMP280;54749;47.850;9.002;2022-09-29T03:55:50;94509.13;;;8.47
67966;BMP280;54749;47.850;9.002;2022-09-29T03:58:18;94509.66;;;8.51
67966;BMP280;54749;47.850;9.002;2022-09-29T04:00:47;94505.41;;;8.51
67966;BMP280;54749;47.850;9.002;2022-09-29T04:03:14;94506.22;;;8.52
67966;BMP280;54749;47.850;9.002;2022-09-29T04:05:44;94509.38;;;8.54
67966;BMP280;54749;47.850;9.002;2022-09-29T04:08:11;94506.06;;;8.53
67966;BMP280;54749;47.850;9.002;2022-09-29T04:10:38;94501.31;;;8.50
67966;BMP280;54749;47.850;9.002;2022-09-29T04:13:06;94510.72;;;8.48
67966;BMP280;54749;47.850;9.002;2022-09-29T04:15:33;94519.47;;;8.44
67966;BMP280;54749;47.850;9.002;2022-09-29T04:18:00;94512.31;;;8.40
67966;BMP280;54749;47.850;9.002;2022-09-29T04:20:27;94509.16;;;8.38
67966;BMP280;54749;47.850;9.002;2022-09-29T04:22:53;94516.84;;;8.37
67966;BMP280;54749;47.850;9.002;2022-09-29T04:25:20;94516.19;;;8.35
67966;BMP280;54749;47.850;9.002;2022-09-29T04:30:48;94511.00;;;8.36
67966;BMP280;54749;47.850;9.002;2022-09-29T04:33:15;94511.81;;;8.37
67966;BMP280;54749;47.850;9.002;2022-09-29T04:35:42;94506.78;;;8.37
67966;BMP280;54749;47.850;9.002;2022-09-29T04:38:09;94519.88;;;8.40
67966;BMP280;54749;47.850;9.002;2022-09-29T04:40:36;94514.06;;;8.40
67966;BMP280;54749;47.850;9.002;2022-09-29T04:43:03;94506.53;;;8.40
67966;BMP280;54749;47.850;9.002;2022-09-29T04:45:31;94509.69;;;8.41
67966;BMP280;54749;47.850;9.002;2022-09-29T04:47:57;94512.19;;;8.41
67966;BMP280;54749;47.850;9.002;2022-09-29T04:50:24;94513.13;;;8.40
67966;BMP280;54749;47.850;9.002;2022-09-29T04:52:51;94512.47;;;8.39
67966;BMP280;54749;47.850;9.002;2022-09-29T04:55:18;94508.38;;;8.38
67966;BMP280;54749;47.850;9.002;2022-09-29T04:57:45;94505.56;;;8.40
67966;BMP280;54749;47.850;9.002;2022-09-29T05:00:13;94510.47;;;8.42
67966;BMP280;54749;47.850;9.002;2022-09-29T05:02:40;94515.22;;;8.45
67966;BMP280;54749;47.850;9.002;2022-09-29T05:05:07;94517.63;;;8.46
67966;BMP280;54749;47.850;9.002;2022-09-29T05:07:35;94524.50;;;8.44
67966;BMP280;54749;47.850;9.002;2022-09-29T05:10:03;94517.75;;;8.45
67966;BMP280;54749;47.850;9.002;2022-09-29T05:12:30;94525.84;;;8.48
67966;BMP280;54749;47.850;9.002;2022-09-29T05:14:57;94517.63;;;8.46
67966;BMP280;54749;47.850;9.002;2022-09-29T05:17:24;94528.47;;;8.47
67966;BMP280;54749;47.850;9.002;2022-09-29T05:19:51;94530.19;;;8.46
67966;BMP280;54749;47.850;9.002;2022-09-29T05:22:18;94530.88;;;8.48
67966;BMP280;54749;47.850;9.002;2022-09-29T05:24:50;94522.38;;;8.49
67966;BMP280;54749;47.850;9.002;2022-09-29T05:27:17;94534.03;;;8.50
67966;BMP280;54749;47.850;9.002;2022-09-29T05:29:44;94534.81;;;8.51
67966;BMP280;54749;47.850;9.002;2022-09-29T05:32:12;94538.78;;;8.53
67966;BMP280;54749;47.850;9.002;2022-09-29T05:34:39;94540.13;;;8.57
67966;BMP280;54749;47.850;9.002;2022-09-29T05:37:06;94543.00;;;8.62
67966;BMP280;54749;47.850;9.002;2022-09-29T05:39:33;94535.31;;;8.63
67966;BMP280;54749;47.850;9.002;2022-09-29T05:42:03;94539.94;;;8.68
67966;BMP280;54749;47.850;9.002;2022-09-29T05:44:32;94536.34;;;8.70
67966;BMP280;54749;47.850;9.002;2022-09-29T05:46:59;94538.72;;;8.72
67966;BMP280;54749;47.850;9.002;2022-09-29T05:49:25;94544.44;;;8.74
67966;BMP280;54749;47.850;9.002;2022-09-29T05:51:52;94538.44;;;8.74
67966;BMP280;54749;47.850;9.002;2022-09-29T05:54:19;94538.44;;;8.74
67966;BMP280;54749;47.850;9.002;2022-09-29T05:56:46;94544.16;;;8.76
67966;BMP280;54749;47.850;9.002;2022-09-29T05:59:13;94547.59;;;8.75
67966;BMP280;54749;47.850;9.002;2022-09-29T06:01:40;94550.09;;;8.75
67966;BMP280;54749;47.850;9.002;2022-09-29T06:04:07;94550.34;;;8.82
67966;BMP280;54749;47.850;9.002;2022-09-29T06:06:34;94557.50;;;8.86
67966;BMP280;54749;47.850;9.002;2022-09-29T06:09:06;94542.91;;;8.90
67966;BMP280;54749;47.850;9.002;2022-09-29T06:11:33;94548.31;;;8.94
67966;BMP280;54749;47.850;9.002;2022-09-29T06:14:01;94546.56;;;9.04
67966;BMP280;54749;47.850;9.002;2022-09-29T06:16:30;94545.56;;;9.14
67966;BMP280;54749;47.850;9.002;2022-09-29T06:19:00;94544.06;;;9.21
67966;BMP280;54749;47.850;9.002;2022-09-29T06:21:28;94546.44;;;9.23
67966;BMP280;54749;47.850;9.002;2022-09-29T06:23:56;94555.84;;;9.30
67966;BMP280;54749;47.850;9.002;2022-09-29T06:26:24;94557.63;;;9.37
67966;BMP280;54749;47.850;9.002;2022-09-29T06:28:52;94553.38;;;9.38
67966;BMP280;54749;47.850;9.002;2022-09-29T06:31:21;94550.44;;;9.42
67966;BMP280;54749;47.850;9.002;2022-09-29T06:33:49;94554.41;;;9.44
67966;BMP280;54749;47.850;9.002;2022-09-29T06:36:49;94551.53;;;9.57
67966;BMP280;54749;47.850;9.002;2022-09-29T06:39:33;94549.59;;;9.68
67966;BMP280;54749;47.850;9.002;2022-09-29T06:42:00;94550.38;;;9.78
67966;BMP280;54749;47.850;9.002;2022-09-29T06:44:28;94546.88;;;9.79
67966;BMP280;54749;47.850;9.002;2022-09-29T06:46:56;94548.34;;;9.81
67966;BMP280;54749;47.850;9.002;2022-09-29T06:49:23;94548.91;;;9.92
67966;BMP280;54749;47.850;9.002;2022-09-29T06:51:51;94548.84;;;10.01
67966;BMP280;54749;47.850;9.002;2022-09-29T06:54:22;94541.69;;;10.14
67966;BMP280;54749;47.850;9.002;2022-09-29T06:56:52;94542.75;;;10.29
67966;BMP280;54749;47.850;9.002;2022-09-29T06:59:19;94542.13;;;10.51
67966;BMP280;54749;47.850;9.002;2022-09-29T07:01:46;94548.19;;;10.66
67966;BMP280;54749;47.850;9.002;2022-09-29T07:04:18;94537.09;;;10.84
67966;BMP280;54749;47.850;9.002;2022-09-29T07:06:46;94537.78;;;10.94
67966;BMP280;54749;47.850;9.002;2022-09-29T07:09:13;94534.81;;;11.06
67966;BMP280;54749;47.850;9.002;2022-09-29T07:11:48;94537.91;;;11.25
67966;BMP280;54749;47.850;9.002;2022-09-29T07:14:17;94540.03;;;11.37
67966;BMP280;54749;47.850;9.002;2022-09-29T07:16:44;94540.66;;;11.39
67966;BMP280;54749;47.850;9.002;2022-09-29T07:19:16;94536.38;;;11.32
67966;BMP280;54749;47.850;9.002;2022-09-29T07:21:47;94536.44;;;11.15
67966;BMP280;54749;47.850;9.002;2022-09-29T07:24:14;94540.69;;;11.14
67966;BMP280;54749;47.850;9.002;2022-09-29T07:26:42;94538.16;;;11.06
67966;BMP280;54749;47.850;9.002;2022-09-29T07:29:09;94543.38;;;11.13
67966;BMP280;54749;47.850;9.002;2022-09-29T07:31:42;94536.78;;;11.20
67966;BMP280;54749;47.850;9.002;2022-09-29T07:34:18;94543.50;;;11.28
67966;BMP280;54749;47.850;9.002;2022-09-29T07:36:45;94546.84;;;11.37
67966;BMP280;54749;47.850;9.002;2022-09-29T07:39:12;94539.13;;;11.46
67966;BMP280;54749;47.850;9.002;2022-09-29T07:41:39;94546.72;;;11.46
67966;BMP280;54749;47.850;9.002;2022-09-29T07:44:06;94543.72;;;11.50
67966;BMP280;54749;47.850;9.002;2022-09-29T07:46:33;94550.41;;;11.67
67966;BMP280;54749;47.850;9.002;2022-09-29T07:49:00;94546.78;;;11.77
67966;BMP280;54749;47.850;9.002;2022-09-29T07:51:27;94554.53;;;11.91
67966;BMP280;54749;47.850;9.002;2022-09-29T07:53:54;94554.06;;;11.95
67966;BMP280;54749;47.850;9.002;2022-09-29T07:56:21;94559.47;;;11.92
67966;BMP280;54749;47.850;9.002;2022-09-29T07:58:49;94559.31;;;11.94
67966;BMP280;54749;47.850;9.002;2022-09-29T08:01:18;94564.34;;;11.86
67966;BMP280;54749;47.850;9.002;2022-09-29T08:03:50;94568.94;;;11.90
67966;BMP280;54749;47.850;9.002;2022-09-29T08:06:17;94565.47;;;11.91
67966;BMP280;54749;47.850;9.002;2022-09-29T08:08:46;94578.13;;;11.91
67966;BMP280;54749;47.850;9.002;2022-09-29T08:11:27;94570.38;;;12.01
67966;BMP280;54749;47.850;9.002;2022-09-29T08:13:58;94577.97;;;12.08
67966;BMP280;54749;47.850;9.002;2022-09-29T08:16:25;94581.16;;;12.26
67966;BMP280;54749;47.850;9.002;2022-09-29T08:18:52;94572.13;;;12.47
67966;BMP280;54749;47.850;9.002;2022-09-29T08:21:18;94576.59;;;12.76
67966;BMP280;54749;47.850;9.002;2022-09-29T08:23:45;94568.31;;;12.97
67966;BMP280;54749;47.850;9.002;2022-09-29T08:26:18;94575.53;;;13.24
67966;BMP280;54749;47.850;9.002;2022-09-29T08:28:58;94580.19;;;13.42
67966;BMP280;54749;47.850;9.002;2022-09-29T08:31:35;94585.88;;;13.52
67966;BMP280;54749;47.850;9.002;2022-09-29T08:34:04;94585.75;;;13.46
67966;BMP280;54749;47.850;9.002;2022-09-29T08:36:31;94595.25;;;13.44
67966;BMP280;54749;47.850;9.002;2022-09-29T08:38:58;94588.44;;;13.44
67966;BMP280;54749;47.850;9.002;2022-09-29T08:41:48;94598.81;;;13.65
67966;BMP280;54749;47.850;9.002;2022-09-29T08:44:31;94607.06;;;13.66
67966;BMP280;54749;47.850;9.002;2022-09-29T08:47:12;94609.41;;;13.68
67966;BMP280;54749;47.850;9.002;2022-09-29T08:49:54;94609.66;;;13.59
67966;BMP280;54749;47.850;9.002;2022-09-29T08:52:24;94615.00;;;13.71
67966;BMP280;54749;47.850;9.002;2022-09-29T08:54:56;94615.09;;;13.78
67966;BMP280;54749;47.850;9.002;2022-09-29T08:57:26;94614.63;;;13.82
67966;BMP280;54749;47.850;9.002;2022-09-29T08:59:54;94610.31;;;13.90
67966;BMP280;54749;47.850;9.002;2022-09-29T09:11:17;94621.34;;;13.60
67966;BMP280;54749;47.850;9.002;2022-09-29T09:14:02;94615.63;;;13.66
67966;BMP280;54749;47.850;9.002;2022-09-29T09:19:35;94624.44;;;13.93
67966;BMP280;54749;47.850;9.002;2022-09-29T09:24:57;94626.69;;;13.88
67966;BMP280;54749;47.850;9.002;2022-09-29T09:27:35;94617.56;;;14.01
67966;BMP280;54749;47.850;9.002;2022-09-29T09:30:23;94614.69;;;14.26
67966;BMP280;54749;47.850;9.002;2022-09-29T09:32:59;94619.94;;;14.46
67966;BMP280;54749;47.850;9.002;2022-09-29T09:35:35;94621.88;;;14.44
67966;BMP280;54749;47.850;9.002;2022-09-29T09:38:14;94616.22;;;14.35
67966;BMP280;54749;47.850;9.002;2022-09-29T09:40:45;94625.66;;;14.48
67966;BMP280;54749;47.850;9.002;2022-09-29T09:43:21;94622.38;;;14.62
67966;BMP280;54749;47.850;9.002;2022-09-29T09:51:29;94621.31;;;15.14
67966;BMP280;54749;47.850;9.002;2022-09-29T09:54:01;94621.47;;;15.13
67966;BMP280;54749;47.850;9.002;2022-09-29T09:56:46;94622.81;;;15.23
67966;BMP280;54749;47.850;9.002;2022-09-29T09:59:28;94618.59;;;15.30
67966;BMP280;54749;47.850;9.002;2022-09-29T10:01:58;94619.06;;;15.61
67966;BMP280;54749;47.850;9.002;2022-09-29T10:04:25;94621.75;;;15.88
67966;BMP280;54749;47.850;9.002;2022-09-29T10:06:52;94629.47;;;15.80
67966;BMP280;54749;47.850;9.002;2022-09-29T10:09:19;94613.94;;;16.24
67966;BMP280;54749;47.850;9.002;2022-09-29T10:11:46;94621.97;;;16.42
67966;BMP280;54749;47.850;9.002;2022-09-29T10:14:19;94616.34;;;16.66
67966;BMP280;54749;47.850;9.002;2022-09-29T10:16:56;94614.69;;;16.59
67966;BMP280;54749;47.850;9.002;2022-09-29T10:20:04;94612.63;;;16.69
67966;BMP280;54749;47.850;9.002;2022-09-29T10:22:32;94620.94;;;16.98
67966;BMP280;54749;47.850;9.002;2022-09-29T10:27:40;94623.03;;;17.15
67966;BMP280;54749;47.850;9.002;2022-09-29T10:33:15;94620.22;;;17.63
67966;BMP280;54749;47.850;9.002;2022-09-29T10:35:44;94622.59;;;17.65
67966;BMP280;54749;47.850;9.002;2022-09-29T10:38:22;94621.88;;;17.77
67966;BMP280;54749;47.850;9.002;2022-09-29T10:40:59;94614.56;;;18.07
67966;BMP280;54749;47.850;9.002;2022-09-29T10:46:00;94615.88;;;18.49
67966;BMP280;54749;47.850;9.002;2022-09-29T10:48:27;94608.25;;;18.68
67966;BMP280;54749;47.850;9.002;2022-09-29T10:50:57;94604.53;;;19.14
67966;BMP280;54749;47.850;9.002;2022-09-29T10:53:40;94600.06;;;19.97
67966;BMP280;54749;47.850;9.002;2022-09-29T10:56:17;94603.75;;;20.14
67966;BMP280;54749;47.850;9.002;2022-09-29T10:58:55;94615.50;;;19.84
67966;BMP280;54749;47.850;9.002;2022-09-29T11:01:32;94616.56;;;19.52
67966;BMP280;54749;47.850;9.002;2022-09-29T11:04:23;94611.59;;;19.50
67966;BMP280;54749;47.850;9.002;2022-09-29T11:06:51;94608.81;;;19.77
67966;BMP280;54749;47.850;9.002;2022-09-29T11:17:28;94614.00;;;19.14
67966;BMP280;54749;47.850;9.002;2022-09-29T11:20:00;94614.19;;;19.06
67966;BMP280;54749;47.850;9.002;2022-09-29T11:25:29;94613.91;;;18.38
67966;BMP280;54749;47.850;9.002;2022-09-29T11:33:47;94621.47;;;19.47
67966;BMP280;54749;47.850;9.002;2022-09-29T11:36:29;94621.25;;;19.67
67966;BMP280;54749;47.850;9.002;2022-09-29T11:42:30;94630.94;;;19.59
67966;BMP280;54749;47.850;9.002;2022-09-29T11:45:04;94635.28;;;19.33
67966;BMP280;54749;47.850;9.002;2022-09-29T11:56:26;94625.81;;;19.47
67966;BMP280;54749;47.850;9.002;2022-09-29T11:59:13;94617.44;;;19.89
67966;BMP280;54749;47.850;9.002;2022-09-29T12:02:07;94625.56;;;19.86
67966;BMP280;54749;47.850;9.002;2022-09-29T12:04:56;94622.72;;;20.13
67966;BMP280;54749;47.850;9.002;2022-09-29T12:16:10;94631.34;;;19.25
67966;BMP280;54749;47.850;9.002;2022-09-29T12:18:55;94627.41;;;18.91
67966;BMP280;54749;47.850;9.002;2022-09-29T12:21:45;94621.84;;;18.68
67966;BMP280;54749;47.850;9.002;2022-09-29T12:24:18;94627.38;;;18.72
67966;BMP280;54749;47.850;9.002;2022-09-29T12:26:48;94634.81;;;18.60
67966;BMP280;54749;47.850;9.002;2022-09-29T12:29:30;94621.63;;;18.63
67966;BMP280;54749;47.850;9.002;2022-09-29T12:32:04;94625.94;;;18.44
67966;BMP280;54749;47.850;9.002;2022-09-29T12:34:42;94626.09;;;18.49
67966;BMP280;54749;47.850;9.002;2022-09-29T12:40:19;94630.00;;;18.32
67966;BMP280;54749;47.850;9.002;2022-09-29T12:48:22;94627.13;;;18.02
67966;BMP280;54749;47.850;9.002;2022-09-29T12:51:04;94627.41;;;17.80
67966;BMP280;54749;47.850;9.002;2022-09-29T12:53:39;94624.34;;;17.91
67966;BMP280;54749;47.850;9.002;2022-09-29T12:56:18;94624.69;;;17.82
67966;BMP280;54749;47.850;9.002;2022-09-29T12:58:54;94624.53;;;17.89
67966;BMP280;54749;47.850;9.002;2022-09-29T13:01:32;94619.00;;;17.86
67966;BMP280;54749;47.850;9.002;2022-09-29T13:04:17;94626.59;;;17.80
67966;BMP280;54749;47.850;9.002;2022-09-29T13:07:29;94617.75;;;17.76
67966;BMP280;54749;47.850;9.002;2022-09-29T13:27:36;94621.03;;;17.64
67966;BMP280;54749;47.850;9.002;2022-09-29T13:30:18;94619.66;;;17.61
67966;BMP280;54749;47.850;9.002;2022-09-29T13:32:53;94627.00;;;17.44
67966;BMP280;54749;47.850;9.002;2022-09-29T13:35:22;94629.69;;;17.36
67966;BMP280;54749;47.850;9.002;2022-09-29T13:37:56;94626.38;;;17.36
67966;BMP280;54749;47.850;9.002;2022-09-29T13:40:28;94635.78;;;17.35
67966;BMP280;54749;47.850;9.002;2022-09-29T13:43:00;94641.16;;;17.19
67966;BMP280;54749;47.850;9.002;2022-09-29T13:48:32;94646.63;;;16.76
67966;BMP280;54749;47.850;9.002;2022-09-29T13:51:39;94654.16;;;16.43
67966;BMP280;54749;47.850;9.002;2022-09-29T14:13:04;94673.38;;;15.26
67966;BMP280;54749;47.850;9.002;2022-09-29T14:16:01;94674.84;;;15.21
67966;BMP280;54749;47.850;9.002;2022-09-29T14:21:50;94683.91;;;15.23
67966;BMP280;54749;47.850;9.002;2022-09-29T14:24:40;94684.94;;;15.14
67966;BMP280;54749;47.850;9.002;2022-09-29T14:29:48;94689.91;;;14.86
67966;BMP280;54749;47.850;9.002;2022-09-29T14:32:22;94689.44;;;14.61
67966;BMP280;54749;47.850;9.002;2022-09-29T14:34:59;94693.22;;;14.43
67966;BMP280;54749;47.850;9.002;2022-09-29T14:37:27;94687.22;;;14.36
67966;BMP280;54749;47.850;9.002;2022-09-29T14:39:54;94696.59;;;14.36
67966;BMP280;54749;47.850;9.002;2022-09-29T14:43:04;94701.88;;;14.26
67966;BMP280;54749;47.850;9.002;2022-09-29T14:45:43;94699.38;;;14.19
67966;BMP280;54749;47.850;9.002;2022-09-29T14:49:07;94699.59;;;14.09
67966;BMP280;54749;47.850;9.002;2022-09-29T14:52:08;94704.41;;;13.97
67966;BMP280;54749;47.850;9.002;2022-09-29T15:00:25;94716.38;;;13.81
67966;BMP280;54749;47.850;9.002;2022-09-29T15:02:55;94722.56;;;13.70
67966;BMP280;54749;47.850;9.002;2022-09-29T15:05:42;94709.91;;;13.63
67966;BMP280;54749;47.850;9.002;2022-09-29T15:08:28;94713.69;;;13.66
67966;BMP280;54749;47.850;9.002;2022-09-29T15:10:57;94712.13;;;13.58
67966;BMP280;54749;47.850;9.002;2022-09-29T15:13:28;94711.03;;;13.52
67966;BMP280;54749;47.850;9.002;2022-09-29T15:16:21;94711.81;;;13.53
67966;BMP280;54749;47.850;9.002;2022-09-29T15:22:23;94722.97;;;13.36
67966;BMP280;54749;47.850;9.002;2022-09-29T15:27:26;94724.22;;;13.17
67966;BMP280;54749;47.850;9.002;2022-09-29T15:29:54;94717.91;;;13.13
67966;BMP280;54749;47.850;9.002;2022-09-29T15:32:27;94721.38;;;13.12
67966;BMP280;54749;47.850;9.002;2022-09-29T15:35:00;94726.44;;;13.12
67966;BMP280;54749;47.850;9.002;2022-09-29T15:37:56;94733.28;;;13.19
67966;BMP280;54749;47.850;9.002;2022-09-29T15:40:25;94740.72;;;13.21
67966;BMP280;54749;47.850;9.002;2022-09-29T15:42:52;94728.03;;;13.21
67966;BMP280;54749;47.850;9.002;2022-09-29T15:45:26;94734.69;;;13.22
67966;BMP280;54749;47.850;9.002;2022-09-29T15:48:03;94733.09;;;13.21
67966;BMP280;54749;47.850;9.002;2022-09-29T15:50:33;94740.25;;;13.17
67966;BMP280;54749;47.850;9.002;2022-09-29T15:53:08;94739.13;;;13.12
67966;BMP280;54749;47.850;9.002;2022-09-29T15:55:36;94741.38;;;13.07
67966;BMP280;54749;47.850;9.002;2022-09-29T16:01:01;94747.06;;;12.94
67966;BMP280;54749;47.850;9.002;2022-09-29T16:03:48;94754.66;;;12.86
67966;BMP280;54749;47.850;9.002;2022-09-29T16:06:22;94756.25;;;12.79
67966;BMP280;54749;47.850;9.002;2022-09-29T16:08:55;94755.59;;;12.69
67966;BMP280;54749;47.850;9.002;2022-09-29T16:11:34;94766.97;;;12.65
67966;BMP280;54749;47.850;9.002;2022-09-29T16:14:22;94768.38;;;12.60
67966;BMP280;54749;47.850;9.002;2022-09-29T16:16:52;94765.47;;;12.47
67966;BMP280;54749;47.850;9.002;2022-09-29T16:19:28;94774.66;;;12.41
67966;BMP280;54749;47.850;9.002;2022-09-29T16:21:59;94774.31;;;12.28
67966;BMP280;54749;47.850;9.002;2022-09-29T16:24:29;94775.84;;;12.21
67966;BMP280;54749;47.850;9.002;2022-09-29T16:26:57;94782.81;;;12.19
67966;BMP280;54749;47.850;9.002;2022-09-29T16:29:35;94773.78;;;12.17
67966;BMP280;54749;47.850;9.002;2022-09-29T16:35:37;94778.47;;;12.04
67966;BMP280;54749;47.850;9.002;2022-09-29T16:40:44;94796.16;;;11.96
67966;BMP280;54749;47.850;9.002;2022-09-29T16:43:40;94788.22;;;11.91
67966;BMP280;54749;47.850;9.002;2022-09-29T16:46:19;94787.25;;;11.85
67966;BMP280;54749;47.850;9.002;2022-09-29T16:48:48;94791.31;;;11.78
67966;BMP280;54749;47.850;9.002;2022-09-29T16:51:21;94788.47;;;11.73
67966;BMP280;54749;47.850;9.002;2022-09-29T16:54:05;94797.88;;;11.63
67966;BMP280;54749;47.850;9.002;2022-09-29T16:56:37;94801.00;;;11.57
67966;BMP280;54749;47.850;9.002;2022-09-29T17:01:40;94801.13;;;11.31
67966;BMP280;54749;47.850;9.002;2022-09-29T17:04:09;94807.69;;;11.24
67966;BMP280;54749;47.850;9.002;2022-09-29T17:06:37;94804.00;;;11.19
67966;BMP280;54749;47.850;9.002;2022-09-29T17:09:04;94811.22;;;11.14
67966;BMP280;54749;47.850;9.002;2022-09-29T17:11:31;94820.84;;;11.11
67966;BMP280;54749;47.850;9.002;2022-09-29T17:13:58;94822.06;;;11.07
67966;BMP280;54749;47.850;9.002;2022-09-29T17:16:27;94826.47;;;11.05
67966;BMP280;54749;47.850;9.002;2022-09-29T17:18:54;94829.28;;;11.02
67966;BMP280;54749;47.850;9.002;2022-09-29T17:21:23;94834.28;;;10.94
67966;BMP280;54749;47.850;9.002;2022-09-29T17:23:49;94835.50;;;10.90
67966;BMP280;54749;47.850;9.002;2022-09-29T17:26:19;94831.66;;;10.86
67966;BMP280;54749;47.850;9.002;2022-09-29T17:29:20;94839.16;;;10.79
67966;BMP280;54749;47.850;9.002;2022-09-29T17:31:47;94843.84;;;10.74
67966;BMP280;54749;47.850;9.002;2022-09-29T17:34:14;94850.00;;;10.71
67966;BMP280;54749;47.850;9.002;2022-09-29T17:36:43;94859.59;;;10.68
67966;BMP280;54749;47.850;9.002;2022-09-29T17:39:10;94862.69;;;10.62
67966;BMP280;54749;47.850;9.002;2022-09-29T17:41:37;94872.78;;;10.62